EJU39CM LIRN-EDDB
Flight info
| Callsign | EJU39CM |
|---|---|
| Flight time | 2h 1m |
| Altitude | 38000 |
| Route | BEDPI DCT MOLUX DCT VAPUP DCT SABAD DCT BERTA DCT LNZ DCT PINQI DCT GAVLI T203 ATGUP ATGUP1L |
| Aircraft | A20N/M-SDE2E3FGHIJ1RWXYZ/LB1G1 |
Departure
| Time | 2026-02-18 09:42 |
|---|---|
| Airport | Naples International Airport (LIRN) |
Arrival
| Time | 2026-02-18 11:44 |
|---|---|
| Airport | Berlin Brandenburg Airport (EDDB) |
| Time | Latitude | Longitude | Altitude | Speed | Heading |
|---|---|---|---|---|---|
| 2026-02-18 09:12 | 40.87812 | 14.28045 | 315 ft | 0 kts | 139° |
| 2026-02-18 09:32 | 40.87815 | 14.28043 | 315 ft | 2 kts | 139° |
| 2026-02-18 09:33 | 40.87828 | 14.28027 | 316 ft | 3 kts | 136° |
| 2026-02-18 09:33 | 40.87854 | 14.27986 | 316 ft | 3 kts | 114° |
| 2026-02-18 09:33 | 40.87859 | 14.27963 | 317 ft | 3 kts | 78° |
| 2026-02-18 09:34 | 40.87856 | 14.27951 | 317 ft | 1 kts | 52° |
| 2026-02-18 09:37 | 40.87864 | 14.27965 | 317 ft | 5 kts | 51° |
| 2026-02-18 09:37 | 40.87951 | 14.28250 | 307 ft | 26 kts | 91° |
| 2026-02-18 09:37 | 40.87939 | 14.28382 | 307 ft | 13 kts | 97° |
| 2026-02-18 09:38 | 40.87971 | 14.28486 | 300 ft | 14 kts | 50° |
| 2026-02-18 09:38 | 40.88048 | 14.28612 | 295 ft | 19 kts | 53° |
| 2026-02-18 09:38 | 40.88133 | 14.28764 | 293 ft | 22 kts | 53° |
| 2026-02-18 09:38 | 40.88235 | 14.28934 | 282 ft | 25 kts | 53° |
| 2026-02-18 09:39 | 40.88345 | 14.29126 | 274 ft | 28 kts | 53° |
| 2026-02-18 09:39 | 40.88466 | 14.29337 | 266 ft | 30 kts | 53° |
| 2026-02-18 09:39 | 40.88584 | 14.29545 | 258 ft | 21 kts | 53° |
| 2026-02-18 09:39 | 40.88679 | 14.29703 | 251 ft | 23 kts | 52° |
| 2026-02-18 09:40 | 40.88785 | 14.29884 | 244 ft | 26 kts | 52° |
| 2026-02-18 09:40 | 40.88885 | 14.30065 | 237 ft | 23 kts | 53° |
| 2026-02-18 09:40 | 40.88988 | 14.30239 | 230 ft | 25 kts | 53° |
| 2026-02-18 09:40 | 40.89091 | 14.30413 | 223 ft | 21 kts | 45° |
| 2026-02-18 09:41 | 40.89202 | 14.30399 | 222 ft | 17 kts | 288° |
| 2026-02-18 09:41 | 40.89187 | 14.30324 | 226 ft | 0 kts | 239° |
| 2026-02-18 09:41 | 40.89171 | 14.30288 | 223 ft | 25 kts | 238° |
| 2026-02-18 09:42 | 40.88954 | 14.29831 | 244 ft | 91 kts | 238° |
| 2026-02-18 09:42 | 40.88501 | 14.28875 | 296 ft | 152 kts | 234° |
| 2026-02-18 09:42 | 40.87924 | 14.27663 | 894 ft | 157 kts | 237° |
| 2026-02-18 09:42 | 40.87190 | 14.26641 | 1711 ft | 154 kts | 203° |
| 2026-02-18 09:43 | 40.86091 | 14.26513 | 2292 ft | 173 kts | 176° |
| 2026-02-18 09:43 | 40.84808 | 14.26737 | 2723 ft | 195 kts | 173° |
| 2026-02-18 09:43 | 40.83456 | 14.26996 | 3337 ft | 201 kts | 175° |
| 2026-02-18 09:43 | 40.82055 | 14.27230 | 4024 ft | 203 kts | 176° |
| 2026-02-18 09:44 | 40.80641 | 14.27436 | 4712 ft | 205 kts | 177° |
| 2026-02-18 09:44 | 40.79693 | 14.27564 | 5152 ft | 206 kts | 178° |
| 2026-02-18 09:44 | 40.78256 | 14.27748 | 5802 ft | 209 kts | 178° |
| 2026-02-18 09:44 | 40.76799 | 14.27926 | 6407 ft | 211 kts | 178° |
| 2026-02-18 09:45 | 40.75323 | 14.28103 | 6993 ft | 215 kts | 178° |
| 2026-02-18 09:45 | 40.72301 | 14.28604 | 8069 ft | 229 kts | 161° |
| 2026-02-18 09:45 | 40.71078 | 14.29976 | 8517 ft | 242 kts | 120° |
| 2026-02-18 09:46 | 40.70732 | 14.32144 | 8866 ft | 248 kts | 79° |
| 2026-02-18 09:46 | 40.71224 | 14.34320 | 9396 ft | 249 kts | 65° |
| 2026-02-18 09:46 | 40.71827 | 14.36509 | 9942 ft | 260 kts | 66° |
| 2026-02-18 09:46 | 40.72365 | 14.38833 | 10641 ft | 267 kts | 69° |
| 2026-02-18 09:47 | 40.72870 | 14.41205 | 11414 ft | 268 kts | 64° |
| 2026-02-18 09:47 | 40.73789 | 14.43286 | 12156 ft | 261 kts | 39° |
| 2026-02-18 09:47 | 40.75244 | 14.44719 | 12563 ft | 270 kts | 22° |
| 2026-02-18 09:47 | 40.76961 | 14.45921 | 12946 ft | 290 kts | 20° |
| 2026-02-18 09:48 | 40.78838 | 14.47175 | 13275 ft | 313 kts | 21° |
| 2026-02-18 09:48 | 40.80820 | 14.48521 | 13617 ft | 333 kts | 21° |
| 2026-02-18 09:48 | 40.82909 | 14.49969 | 14209 ft | 343 kts | 22° |
| 2026-02-18 09:48 | 40.85032 | 14.51459 | 14952 ft | 347 kts | 22° |
| 2026-02-18 09:49 | 40.87184 | 14.52976 | 15738 ft | 351 kts | 21° |
| 2026-02-18 09:49 | 40.91513 | 14.56031 | 17208 ft | 359 kts | 21° |
| 2026-02-18 09:49 | 40.93734 | 14.57600 | 17963 ft | 362 kts | 21° |
| 2026-02-18 09:50 | 40.95975 | 14.59184 | 18639 ft | 366 kts | 21° |
| 2026-02-18 09:50 | 40.98216 | 14.60770 | 19240 ft | 371 kts | 21° |
| 2026-02-18 09:50 | 41.00504 | 14.62389 | 19859 ft | 375 kts | 21° |
| 2026-02-18 09:50 | 41.02823 | 14.64032 | 20476 ft | 379 kts | 21° |
| 2026-02-18 09:51 | 41.05155 | 14.65678 | 21109 ft | 381 kts | 19° |
| 2026-02-18 09:51 | 41.07556 | 14.67166 | 21728 ft | 381 kts | 16° |
| 2026-02-18 09:51 | 41.10002 | 14.68553 | 22310 ft | 383 kts | 15° |
| 2026-02-18 09:51 | 41.12477 | 14.69932 | 22875 ft | 387 kts | 15° |
| 2026-02-18 09:52 | 41.14950 | 14.71309 | 23415 ft | 391 kts | 15° |
| 2026-02-18 09:52 | 41.17469 | 14.72714 | 23918 ft | 394 kts | 15° |
| 2026-02-18 09:52 | 41.20014 | 14.74138 | 24382 ft | 397 kts | 15° |
| 2026-02-18 09:52 | 41.22579 | 14.75574 | 24858 ft | 400 kts | 14° |
| 2026-02-18 09:53 | 41.25156 | 14.77042 | 25348 ft | 404 kts | 15° |
| 2026-02-18 09:53 | 41.30289 | 14.80029 | 26245 ft | 402 kts | 10° |
| 2026-02-18 09:53 | 41.32983 | 14.81003 | 26651 ft | 399 kts | 5° |
| 2026-02-18 09:54 | 41.35711 | 14.81784 | 27081 ft | 400 kts | 3° |
| 2026-02-18 09:54 | 41.38422 | 14.82461 | 27489 ft | 401 kts | 1° |
| 2026-02-18 09:54 | 41.41184 | 14.83091 | 27878 ft | 403 kts | 1° |
| 2026-02-18 09:54 | 41.43961 | 14.83696 | 28282 ft | 405 kts | 1° |
| 2026-02-18 09:55 | 41.46767 | 14.84300 | 28716 ft | 408 kts | 0° |
| 2026-02-18 09:55 | 41.49539 | 14.84899 | 29100 ft | 410 kts | 0° |
| 2026-02-18 09:55 | 41.52381 | 14.85520 | 29465 ft | 413 kts | 0° |
| 2026-02-18 09:55 | 41.55231 | 14.86146 | 29819 ft | 415 kts | 0° |
| 2026-02-18 09:56 | 41.58100 | 14.86782 | 30088 ft | 420 kts | 0° |
| 2026-02-18 09:56 | 41.61011 | 14.87429 | 30210 ft | 426 kts | 1° |
| 2026-02-18 09:56 | 41.63923 | 14.88078 | 30359 ft | 432 kts | 1° |
| 2026-02-18 09:56 | 41.66900 | 14.88747 | 30734 ft | 432 kts | 1° |
| 2026-02-18 09:57 | 41.69874 | 14.89421 | 31145 ft | 431 kts | 1° |
| 2026-02-18 09:57 | 41.75755 | 14.90754 | 31919 ft | 430 kts | 0° |
| 2026-02-18 09:57 | 41.78698 | 14.91419 | 32324 ft | 428 kts | 0° |
| 2026-02-18 09:58 | 41.81646 | 14.92085 | 32730 ft | 427 kts | 0° |
| 2026-02-18 09:58 | 41.84591 | 14.92750 | 33144 ft | 426 kts | 360° |
| 2026-02-18 09:58 | 41.87478 | 14.93401 | 33570 ft | 423 kts | 360° |
| 2026-02-18 09:58 | 41.90391 | 14.94059 | 33966 ft | 422 kts | 359° |
| 2026-02-18 09:59 | 41.93263 | 14.94708 | 34243 ft | 422 kts | 360° |
| 2026-02-18 09:59 | 41.96159 | 14.95361 | 34498 ft | 422 kts | 359° |
| 2026-02-18 09:59 | 41.99073 | 14.96019 | 34773 ft | 421 kts | 360° |
| 2026-02-18 09:59 | 42.01965 | 14.96673 | 35042 ft | 421 kts | 360° |
| 2026-02-18 10:00 | 42.04856 | 14.97328 | 35321 ft | 421 kts | 360° |
| 2026-02-18 10:00 | 42.07710 | 14.97975 | 35549 ft | 421 kts | 360° |
| 2026-02-18 10:00 | 42.10613 | 14.98634 | 35783 ft | 421 kts | 360° |
| 2026-02-18 10:00 | 42.13514 | 14.99293 | 36012 ft | 421 kts | 360° |
| 2026-02-18 10:01 | 42.16369 | 14.99943 | 36243 ft | 421 kts | 360° |
| 2026-02-18 10:01 | 42.22167 | 15.01264 | 36662 ft | 421 kts | 360° |
| 2026-02-18 10:01 | 42.25072 | 15.01927 | 36892 ft | 421 kts | 0° |
| 2026-02-18 10:02 | 42.27969 | 15.02589 | 37084 ft | 422 kts | 0° |
| 2026-02-18 10:02 | 42.30864 | 15.03251 | 37291 ft | 422 kts | 0° |
| 2026-02-18 10:02 | 42.33730 | 15.03907 | 37484 ft | 422 kts | 0° |
| 2026-02-18 10:02 | 42.36633 | 15.04572 | 37682 ft | 422 kts | 0° |
| 2026-02-18 10:03 | 42.39530 | 15.05237 | 37868 ft | 422 kts | 0° |
| 2026-02-18 10:03 | 42.42394 | 15.05894 | 38006 ft | 423 kts | 0° |
| 2026-02-18 10:03 | 42.48207 | 15.07228 | 38020 ft | 423 kts | 0° |
| 2026-02-18 10:04 | 42.54016 | 15.08568 | 38021 ft | 422 kts | 0° |
| 2026-02-18 10:04 | 42.59813 | 15.09906 | 38020 ft | 422 kts | 0° |
| 2026-02-18 10:05 | 42.68490 | 15.11911 | 38025 ft | 423 kts | 0° |
| 2026-02-18 10:06 | 42.74278 | 15.13252 | 38019 ft | 423 kts | 0° |
| 2026-02-18 10:06 | 42.80094 | 15.14603 | 38028 ft | 423 kts | 0° |
| 2026-02-18 10:07 | 42.85921 | 15.15959 | 38031 ft | 423 kts | 0° |
| 2026-02-18 10:07 | 42.91697 | 15.17305 | 38026 ft | 424 kts | 0° |
| 2026-02-18 10:08 | 42.97515 | 15.18664 | 38022 ft | 424 kts | 0° |
| 2026-02-18 10:08 | 43.03331 | 15.19995 | 38036 ft | 420 kts | 357° |
| 2026-02-18 10:09 | 43.09057 | 15.20043 | 38023 ft | 407 kts | 347° |
| 2026-02-18 10:09 | 43.17482 | 15.19014 | 38021 ft | 406 kts | 346° |
| 2026-02-18 10:10 | 43.23077 | 15.18221 | 38028 ft | 405 kts | 345° |
| 2026-02-18 10:10 | 43.28714 | 15.17435 | 38021 ft | 405 kts | 346° |
| 2026-02-18 10:11 | 43.34296 | 15.16672 | 38017 ft | 405 kts | 346° |
| 2026-02-18 10:11 | 43.39922 | 15.15908 | 38021 ft | 405 kts | 346° |
| 2026-02-18 10:12 | 43.45536 | 15.15144 | 38017 ft | 405 kts | 346° |
| 2026-02-18 10:12 | 43.51137 | 15.14380 | 38018 ft | 404 kts | 346° |
| 2026-02-18 10:13 | 43.59516 | 15.13233 | 38020 ft | 404 kts | 346° |
| 2026-02-18 10:14 | 43.65123 | 15.12463 | 38021 ft | 404 kts | 345° |
| 2026-02-18 10:14 | 43.70678 | 15.11700 | 38020 ft | 403 kts | 345° |
| 2026-02-18 10:15 | 43.76277 | 15.10929 | 38025 ft | 403 kts | 345° |
| 2026-02-18 10:15 | 43.81881 | 15.10155 | 38025 ft | 403 kts | 345° |
| 2026-02-18 10:16 | 43.87434 | 15.09387 | 38028 ft | 403 kts | 345° |
| 2026-02-18 10:16 | 43.93031 | 15.08612 | 38025 ft | 403 kts | 345° |
| 2026-02-18 10:17 | 43.98620 | 15.07837 | 38021 ft | 403 kts | 345° |
| 2026-02-18 10:17 | 44.06969 | 15.06676 | 38023 ft | 403 kts | 345° |
| 2026-02-18 10:18 | 44.12557 | 15.05897 | 38020 ft | 402 kts | 345° |
| 2026-02-18 10:18 | 44.18111 | 15.05121 | 38015 ft | 402 kts | 345° |
| 2026-02-18 10:19 | 44.23694 | 15.04339 | 38019 ft | 402 kts | 346° |
| 2026-02-18 10:19 | 44.29257 | 15.03561 | 38009 ft | 400 kts | 345° |
| 2026-02-18 10:20 | 44.34803 | 15.02782 | 37998 ft | 400 kts | 345° |
| 2026-02-18 10:20 | 44.40306 | 15.02006 | 38015 ft | 400 kts | 345° |
| 2026-02-18 10:21 | 44.48615 | 15.00835 | 38010 ft | 399 kts | 345° |
| 2026-02-18 10:22 | 44.54130 | 15.00054 | 38008 ft | 399 kts | 345° |
| 2026-02-18 10:22 | 44.59678 | 14.99268 | 38026 ft | 399 kts | 345° |
| 2026-02-18 10:23 | 44.65183 | 14.98490 | 38006 ft | 399 kts | 345° |
| 2026-02-18 10:23 | 44.70713 | 14.97704 | 37997 ft | 398 kts | 345° |
| 2026-02-18 10:24 | 44.76215 | 14.96915 | 38000 ft | 399 kts | 345° |
| 2026-02-18 10:24 | 44.81750 | 14.96123 | 38010 ft | 399 kts | 345° |
| 2026-02-18 10:25 | 44.87235 | 14.95337 | 38008 ft | 398 kts | 345° |
| 2026-02-18 10:25 | 44.95525 | 14.94149 | 38008 ft | 398 kts | 345° |
| 2026-02-18 10:26 | 45.01045 | 14.93356 | 38009 ft | 398 kts | 345° |
| 2026-02-18 10:26 | 45.06532 | 14.92565 | 38003 ft | 398 kts | 345° |
| 2026-02-18 10:27 | 45.12062 | 14.91768 | 38007 ft | 399 kts | 345° |
| 2026-02-18 10:27 | 45.17581 | 14.90974 | 37999 ft | 398 kts | 345° |
| 2026-02-18 10:28 | 45.23109 | 14.90172 | 38002 ft | 399 kts | 345° |
| 2026-02-18 10:28 | 45.28615 | 14.89371 | 38004 ft | 399 kts | 345° |
| 2026-02-18 10:29 | 45.36904 | 14.88166 | 38012 ft | 400 kts | 345° |
| 2026-02-18 10:30 | 45.42446 | 14.87358 | 38012 ft | 400 kts | 345° |
| 2026-02-18 10:30 | 45.47977 | 14.86468 | 38008 ft | 398 kts | 342° |
| 2026-02-18 10:31 | 45.53439 | 14.85203 | 38013 ft | 396 kts | 341° |
| 2026-02-18 10:31 | 45.58848 | 14.83829 | 38016 ft | 396 kts | 341° |
| 2026-02-18 10:32 | 45.63376 | 14.82692 | 38005 ft | 396 kts | 341° |
| 2026-02-18 10:32 | 45.69721 | 14.81133 | 38013 ft | 396 kts | 341° |
| 2026-02-18 10:33 | 45.74249 | 14.80026 | 38008 ft | 397 kts | 341° |
| 2026-02-18 10:33 | 45.82434 | 14.78026 | 38009 ft | 397 kts | 341° |
| 2026-02-18 10:34 | 45.87889 | 14.76691 | 38007 ft | 397 kts | 341° |
| 2026-02-18 10:34 | 45.93313 | 14.75359 | 37993 ft | 397 kts | 341° |
| 2026-02-18 10:35 | 45.98784 | 14.74010 | 38013 ft | 398 kts | 341° |
| 2026-02-18 10:35 | 46.04222 | 14.72668 | 38012 ft | 398 kts | 341° |
| 2026-02-18 10:36 | 46.09691 | 14.71318 | 38006 ft | 398 kts | 341° |
| 2026-02-18 10:36 | 46.11506 | 14.70870 | 38014 ft | 398 kts | 341° |
| 2026-02-18 10:37 | 46.23326 | 14.67936 | 38071 ft | 398 kts | 342° |
| 2026-02-18 10:38 | 46.28769 | 14.66579 | 38017 ft | 397 kts | 342° |
| 2026-02-18 10:38 | 46.34230 | 14.65216 | 38020 ft | 397 kts | 342° |
| 2026-02-18 10:39 | 46.39660 | 14.63871 | 38015 ft | 398 kts | 342° |
| 2026-02-18 10:39 | 46.45128 | 14.62492 | 38036 ft | 397 kts | 341° |
| 2026-02-18 10:40 | 46.50556 | 14.60983 | 38002 ft | 396 kts | 340° |
| 2026-02-18 10:40 | 46.55970 | 14.59425 | 38005 ft | 396 kts | 340° |
| 2026-02-18 10:41 | 46.61351 | 14.57876 | 38006 ft | 396 kts | 340° |
| 2026-02-18 10:41 | 46.69455 | 14.55553 | 38016 ft | 396 kts | 341° |
| 2026-02-18 10:42 | 46.74880 | 14.54001 | 38012 ft | 397 kts | 341° |
| 2026-02-18 10:42 | 46.80310 | 14.52445 | 37998 ft | 396 kts | 341° |
| 2026-02-18 10:43 | 46.85703 | 14.50896 | 37992 ft | 396 kts | 341° |
| 2026-02-18 10:43 | 46.91133 | 14.49330 | 37992 ft | 398 kts | 341° |
| 2026-02-18 10:44 | 46.96546 | 14.47765 | 37975 ft | 399 kts | 341° |
| 2026-02-18 10:44 | 47.02000 | 14.46191 | 37975 ft | 399 kts | 340° |
| 2026-02-18 10:45 | 47.10157 | 14.43824 | 38021 ft | 399 kts | 340° |
| 2026-02-18 10:46 | 47.15630 | 14.42228 | 37982 ft | 402 kts | 341° |
| 2026-02-18 10:46 | 47.21107 | 14.40631 | 37978 ft | 402 kts | 341° |
| 2026-02-18 10:47 | 47.26616 | 14.39025 | 37967 ft | 403 kts | 341° |
| 2026-02-18 10:47 | 47.32117 | 14.37419 | 38028 ft | 403 kts | 341° |
| 2026-02-18 10:48 | 47.37636 | 14.35799 | 37999 ft | 406 kts | 341° |
| 2026-02-18 10:48 | 47.43192 | 14.34161 | 37983 ft | 407 kts | 341° |
| 2026-02-18 10:49 | 47.48732 | 14.32512 | 37998 ft | 407 kts | 341° |
| 2026-02-18 10:49 | 47.57011 | 14.30082 | 38008 ft | 407 kts | 341° |
| 2026-02-18 10:50 | 47.62608 | 14.28431 | 37998 ft | 410 kts | 341° |
| 2026-02-18 10:50 | 47.68178 | 14.26781 | 38000 ft | 410 kts | 341° |
| 2026-02-18 10:51 | 47.73786 | 14.25111 | 38007 ft | 410 kts | 341° |
| 2026-02-18 10:51 | 47.79394 | 14.23439 | 38004 ft | 410 kts | 341° |
| 2026-02-18 10:52 | 47.84969 | 14.21772 | 38001 ft | 410 kts | 341° |
| 2026-02-18 10:52 | 47.90574 | 14.20094 | 38006 ft | 410 kts | 341° |
| 2026-02-18 10:53 | 47.98962 | 14.17579 | 38011 ft | 411 kts | 341° |
| 2026-02-18 10:54 | 48.04578 | 14.15888 | 38009 ft | 411 kts | 341° |
| 2026-02-18 10:54 | 48.10152 | 14.14205 | 38019 ft | 410 kts | 341° |
| 2026-02-18 10:55 | 48.15772 | 14.12504 | 38023 ft | 410 kts | 341° |
| 2026-02-18 10:55 | 48.21344 | 14.10816 | 38058 ft | 410 kts | 341° |
| 2026-02-18 10:56 | 48.26993 | 14.09223 | 38022 ft | 412 kts | 342° |
| 2026-02-18 10:56 | 48.32616 | 14.07773 | 38021 ft | 412 kts | 342° |
| 2026-02-18 10:57 | 48.38281 | 14.06323 | 38015 ft | 412 kts | 342° |
| 2026-02-18 10:57 | 48.46785 | 14.04111 | 38004 ft | 413 kts | 342° |
| 2026-02-18 10:58 | 48.52403 | 14.02636 | 38000 ft | 412 kts | 342° |
| 2026-02-18 10:58 | 48.58073 | 14.01144 | 37995 ft | 412 kts | 342° |
| 2026-02-18 10:59 | 48.63742 | 13.99650 | 37999 ft | 413 kts | 342° |
| 2026-02-18 10:59 | 48.69343 | 13.97976 | 38000 ft | 409 kts | 338° |
| 2026-02-18 11:00 | 48.74829 | 13.95660 | 37996 ft | 408 kts | 336° |
| 2026-02-18 11:00 | 48.80246 | 13.93239 | 37989 ft | 407 kts | 336° |
| 2026-02-18 11:01 | 48.88414 | 13.89539 | 37990 ft | 407 kts | 336° |
| 2026-02-18 11:02 | 48.93826 | 13.87090 | 37985 ft | 408 kts | 336° |
| 2026-02-18 11:02 | 48.99272 | 13.84626 | 37987 ft | 408 kts | 336° |
| 2026-02-18 11:03 | 49.04729 | 13.82153 | 37988 ft | 408 kts | 336° |
| 2026-02-18 11:03 | 49.10148 | 13.79692 | 37973 ft | 408 kts | 336° |
| 2026-02-18 11:04 | 49.15599 | 13.77208 | 37995 ft | 409 kts | 336° |
| 2026-02-18 11:04 | 49.21056 | 13.74717 | 37980 ft | 409 kts | 336° |
| 2026-02-18 11:05 | 49.26500 | 13.72227 | 37976 ft | 409 kts | 336° |
| 2026-02-18 11:05 | 49.34669 | 13.68479 | 37967 ft | 409 kts | 336° |
| 2026-02-18 11:06 | 49.40131 | 13.65965 | 37985 ft | 409 kts | 337° |
| 2026-02-18 11:06 | 49.45586 | 13.63451 | 37972 ft | 408 kts | 337° |
| 2026-02-18 11:07 | 49.51004 | 13.60946 | 37969 ft | 408 kts | 337° |
| 2026-02-18 11:07 | 49.56428 | 13.58432 | 37965 ft | 408 kts | 337° |
| 2026-02-18 11:08 | 49.61869 | 13.55906 | 37967 ft | 408 kts | 337° |
| 2026-02-18 11:08 | 49.67313 | 13.53371 | 37959 ft | 407 kts | 337° |
| 2026-02-18 11:09 | 49.75439 | 13.49578 | 37967 ft | 407 kts | 337° |
| 2026-02-18 11:10 | 49.80868 | 13.47035 | 37962 ft | 407 kts | 337° |
| 2026-02-18 11:10 | 49.86291 | 13.44490 | 37957 ft | 407 kts | 337° |
| 2026-02-18 11:11 | 49.91717 | 13.41937 | 37957 ft | 406 kts | 337° |
| 2026-02-18 11:11 | 49.97131 | 13.39385 | 37946 ft | 406 kts | 337° |
| 2026-02-18 11:12 | 50.02510 | 13.36842 | 37938 ft | 406 kts | 337° |
| 2026-02-18 11:12 | 50.07935 | 13.34271 | 37945 ft | 406 kts | 337° |
| 2026-02-18 11:13 | 50.13346 | 13.31701 | 37940 ft | 406 kts | 338° |
| 2026-02-18 11:13 | 50.21337 | 13.27906 | 37948 ft | 390 kts | 337° |
| 2026-02-18 11:14 | 50.26500 | 13.25443 | 37939 ft | 386 kts | 337° |
| 2026-02-18 11:14 | 50.31641 | 13.22974 | 37937 ft | 386 kts | 337° |
| 2026-02-18 11:15 | 50.36774 | 13.20504 | 37948 ft | 386 kts | 337° |
| 2026-02-18 11:15 | 50.41894 | 13.18041 | 37921 ft | 386 kts | 337° |
| 2026-02-18 11:16 | 50.44462 | 13.16837 | 37481 ft | 384 kts | 340° |
| 2026-02-18 11:16 | 50.47101 | 13.16034 | 36970 ft | 388 kts | 346° |
| 2026-02-18 11:16 | 50.49797 | 13.15841 | 36460 ft | 395 kts | 354° |
| 2026-02-18 11:16 | 50.52553 | 13.16361 | 35945 ft | 403 kts | 4° |
| 2026-02-18 11:17 | 50.55270 | 13.17672 | 35427 ft | 414 kts | 13° |
| 2026-02-18 11:17 | 50.60496 | 13.21525 | 34486 ft | 417 kts | 17° |
| 2026-02-18 11:17 | 50.63067 | 13.23626 | 34079 ft | 414 kts | 18° |
| 2026-02-18 11:18 | 50.65606 | 13.25737 | 33623 ft | 410 kts | 17° |
| 2026-02-18 11:18 | 50.68118 | 13.27826 | 33157 ft | 406 kts | 17° |
| 2026-02-18 11:18 | 50.70608 | 13.29882 | 32705 ft | 402 kts | 17° |
| 2026-02-18 11:18 | 50.73076 | 13.31905 | 32261 ft | 398 kts | 17° |
| 2026-02-18 11:19 | 50.75523 | 13.33899 | 31834 ft | 394 kts | 16° |
| 2026-02-18 11:19 | 50.77951 | 13.35872 | 31407 ft | 390 kts | 16° |
| 2026-02-18 11:19 | 50.80360 | 13.37826 | 30982 ft | 386 kts | 16° |
| 2026-02-18 11:19 | 50.82715 | 13.39737 | 30609 ft | 383 kts | 15° |
| 2026-02-18 11:20 | 50.85108 | 13.41474 | 30202 ft | 371 kts | 9° |
| 2026-02-18 11:20 | 50.87530 | 13.42621 | 29731 ft | 357 kts | 0° |
| 2026-02-18 11:20 | 50.89136 | 13.43024 | 29387 ft | 347 kts | 355° |
| 2026-02-18 11:20 | 50.91510 | 13.43087 | 28873 ft | 335 kts | 347° |
| 2026-02-18 11:21 | 50.93818 | 13.42734 | 28377 ft | 329 kts | 344° |
| 2026-02-18 11:21 | 50.98311 | 13.41822 | 27430 ft | 324 kts | 344° |
| 2026-02-18 11:21 | 51.00541 | 13.41357 | 26974 ft | 322 kts | 344° |
| 2026-02-18 11:22 | 51.02760 | 13.40895 | 26534 ft | 320 kts | 344° |
| 2026-02-18 11:22 | 51.04965 | 13.40437 | 26170 ft | 317 kts | 344° |
| 2026-02-18 11:22 | 51.07134 | 13.39988 | 25834 ft | 312 kts | 344° |
| 2026-02-18 11:22 | 51.09288 | 13.39540 | 25382 ft | 312 kts | 344° |
| 2026-02-18 11:23 | 51.11442 | 13.39089 | 24906 ft | 311 kts | 344° |
| 2026-02-18 11:23 | 51.13560 | 13.38647 | 24414 ft | 311 kts | 345° |
| 2026-02-18 11:23 | 51.15708 | 13.38199 | 23957 ft | 311 kts | 345° |
| 2026-02-18 11:23 | 51.17852 | 13.37752 | 23499 ft | 311 kts | 345° |
| 2026-02-18 11:24 | 51.19999 | 13.37304 | 22953 ft | 310 kts | 345° |
| 2026-02-18 11:24 | 51.22140 | 13.36857 | 22405 ft | 309 kts | 345° |
| 2026-02-18 11:24 | 51.24275 | 13.36411 | 21898 ft | 309 kts | 346° |
| 2026-02-18 11:24 | 51.26406 | 13.35966 | 21394 ft | 308 kts | 346° |
| 2026-02-18 11:25 | 51.28530 | 13.35519 | 20925 ft | 307 kts | 346° |
| 2026-02-18 11:25 | 51.32826 | 13.34600 | 19939 ft | 328 kts | 347° |
| 2026-02-18 11:25 | 51.35128 | 13.34115 | 19448 ft | 336 kts | 347° |
| 2026-02-18 11:26 | 51.37463 | 13.33630 | 18971 ft | 337 kts | 348° |
| 2026-02-18 11:26 | 51.39761 | 13.33154 | 18510 ft | 336 kts | 348° |
| 2026-02-18 11:26 | 51.42080 | 13.32670 | 18015 ft | 335 kts | 348° |
| 2026-02-18 11:26 | 51.44402 | 13.32184 | 17482 ft | 335 kts | 348° |
| 2026-02-18 11:27 | 51.46712 | 13.31698 | 16960 ft | 334 kts | 348° |
| 2026-02-18 11:27 | 51.49019 | 13.31212 | 16444 ft | 333 kts | 348° |
| 2026-02-18 11:27 | 51.51317 | 13.30727 | 15941 ft | 333 kts | 348° |
| 2026-02-18 11:27 | 51.53618 | 13.30240 | 15458 ft | 333 kts | 349° |
| 2026-02-18 11:28 | 51.55883 | 13.29760 | 14973 ft | 333 kts | 349° |
| 2026-02-18 11:28 | 51.58190 | 13.29271 | 14497 ft | 333 kts | 349° |
| 2026-02-18 11:28 | 51.60491 | 13.28783 | 14013 ft | 333 kts | 349° |
| 2026-02-18 11:28 | 51.62792 | 13.28294 | 13509 ft | 333 kts | 349° |
| 2026-02-18 11:29 | 51.65079 | 13.27810 | 12972 ft | 326 kts | 349° |
| 2026-02-18 11:29 | 51.69419 | 13.26892 | 11954 ft | 304 kts | 349° |
| 2026-02-18 11:29 | 51.71462 | 13.26458 | 11455 ft | 295 kts | 349° |
| 2026-02-18 11:30 | 51.73471 | 13.26029 | 10957 ft | 287 kts | 349° |
| 2026-02-18 11:30 | 51.75428 | 13.25611 | 10475 ft | 280 kts | 349° |
| 2026-02-18 11:30 | 51.77338 | 13.25202 | 9990 ft | 273 kts | 349° |
| 2026-02-18 11:30 | 51.79211 | 13.24799 | 9487 ft | 270 kts | 349° |
| 2026-02-18 11:31 | 51.81044 | 13.24405 | 8977 ft | 268 kts | 349° |
| 2026-02-18 11:31 | 51.82900 | 13.24006 | 8462 ft | 267 kts | 349° |
| 2026-02-18 11:31 | 51.84731 | 13.23612 | 7944 ft | 264 kts | 349° |
| 2026-02-18 11:31 | 51.86560 | 13.23218 | 7437 ft | 265 kts | 349° |
| 2026-02-18 11:32 | 51.88396 | 13.22822 | 6937 ft | 266 kts | 349° |
| 2026-02-18 11:32 | 51.90231 | 13.22427 | 6447 ft | 267 kts | 349° |
| 2026-02-18 11:32 | 51.92074 | 13.22030 | 5935 ft | 267 kts | 349° |
| 2026-02-18 11:32 | 51.93916 | 13.21633 | 5410 ft | 267 kts | 349° |
| 2026-02-18 11:33 | 51.95755 | 13.21237 | 5010 ft | 264 kts | 349° |
| 2026-02-18 11:33 | 51.99311 | 13.20472 | 4324 ft | 255 kts | 349° |
| 2026-02-18 11:33 | 52.01055 | 13.20096 | 3984 ft | 250 kts | 349° |
| 2026-02-18 11:34 | 52.02766 | 13.19725 | 3642 ft | 246 kts | 350° |
| 2026-02-18 11:34 | 52.04457 | 13.19358 | 3297 ft | 243 kts | 350° |
| 2026-02-18 11:34 | 52.06123 | 13.18997 | 3007 ft | 238 kts | 351° |
| 2026-02-18 11:34 | 52.07716 | 13.18653 | 2967 ft | 223 kts | 351° |
| 2026-02-18 11:35 | 52.09208 | 13.18332 | 2964 ft | 208 kts | 350° |
| 2026-02-18 11:35 | 52.10630 | 13.18023 | 2969 ft | 205 kts | 350° |
| 2026-02-18 11:35 | 52.12049 | 13.17712 | 2970 ft | 206 kts | 350° |
| 2026-02-18 11:35 | 52.13455 | 13.17405 | 2968 ft | 206 kts | 350° |
| 2026-02-18 11:36 | 52.14877 | 13.17095 | 2973 ft | 206 kts | 350° |
| 2026-02-18 11:36 | 52.16308 | 13.16784 | 2971 ft | 206 kts | 350° |
| 2026-02-18 11:36 | 52.17726 | 13.16475 | 3005 ft | 203 kts | 350° |
| 2026-02-18 11:36 | 52.19122 | 13.16170 | 2981 ft | 205 kts | 350° |
| 2026-02-18 11:37 | 52.20530 | 13.15863 | 2973 ft | 197 kts | 350° |
| 2026-02-18 11:37 | 52.23029 | 13.15323 | 2994 ft | 175 kts | 350° |
| 2026-02-18 11:37 | 52.24246 | 13.15072 | 2977 ft | 176 kts | 353° |
| 2026-02-18 11:38 | 52.25476 | 13.15070 | 2978 ft | 177 kts | 2° |
| 2026-02-18 11:38 | 52.26647 | 13.15710 | 2973 ft | 181 kts | 32° |
| 2026-02-18 11:38 | 52.27450 | 13.17298 | 2996 ft | 184 kts | 60° |
| 2026-02-18 11:38 | 52.27961 | 13.19218 | 2982 ft | 184 kts | 66° |
| 2026-02-18 11:39 | 52.28415 | 13.21166 | 2981 ft | 183 kts | 66° |
| 2026-02-18 11:39 | 52.28860 | 13.23052 | 2986 ft | 170 kts | 66° |
| 2026-02-18 11:39 | 52.29269 | 13.24770 | 3012 ft | 161 kts | 66° |
| 2026-02-18 11:39 | 52.29680 | 13.26478 | 2989 ft | 162 kts | 65° |
| 2026-02-18 11:40 | 52.30093 | 13.28191 | 2804 ft | 162 kts | 65° |
| 2026-02-18 11:40 | 52.30502 | 13.29901 | 2567 ft | 161 kts | 66° |
| 2026-02-18 11:40 | 52.30906 | 13.31596 | 2326 ft | 160 kts | 66° |
| 2026-02-18 11:40 | 52.31308 | 13.33286 | 2087 ft | 159 kts | 66° |
| 2026-02-18 11:41 | 52.31698 | 13.34921 | 1864 ft | 147 kts | 66° |
| 2026-02-18 11:41 | 52.32381 | 13.37785 | 1482 ft | 131 kts | 65° |
| 2026-02-18 11:41 | 52.32708 | 13.39157 | 1284 ft | 128 kts | 66° |
| 2026-02-18 11:42 | 52.33031 | 13.40515 | 1073 ft | 128 kts | 66° |
| 2026-02-18 11:42 | 52.33357 | 13.41857 | 779 ft | 127 kts | 64° |
| 2026-02-18 11:42 | 52.33680 | 13.43197 | 597 ft | 127 kts | 66° |
| 2026-02-18 11:42 | 52.33993 | 13.44548 | 466 ft | 127 kts | 67° |
| 2026-02-18 11:43 | 52.34310 | 13.45905 | 318 ft | 127 kts | 65° |
| 2026-02-18 11:43 | 52.34644 | 13.47249 | 209 ft | 127 kts | 66° |
| 2026-02-18 11:43 | 52.34952 | 13.48538 | 158 ft | 110 kts | 69° |
| 2026-02-18 11:43 | 52.35134 | 13.49311 | 157 ft | 51 kts | 73° |
| 2026-02-18 11:44 | 52.35238 | 13.49738 | 157 ft | 34 kts | 59° |
| 2026-02-18 11:44 | 52.35374 | 13.49989 | 157 ft | 14 kts | 40° |
| 2026-02-18 11:44 | 52.35458 | 13.50101 | 157 ft | 17 kts | 38° |
| 2026-02-18 11:44 | 52.35507 | 13.50166 | 157 ft | 0 kts | 39° |
| 2026-02-18 11:46 | 52.35508 | 13.50168 | 157 ft | 1 kts | 39° |
| 2026-02-18 11:46 | 52.35573 | 13.50258 | 157 ft | 22 kts | 49° |
| 2026-02-18 11:46 | 52.35628 | 13.50421 | 157 ft | 18 kts | 69° |
| 2026-02-18 11:46 | 52.35687 | 13.50663 | 158 ft | 18 kts | 68° |
| 2026-02-18 11:47 | 52.35744 | 13.50804 | 157 ft | 17 kts | 20° |
| 2026-02-18 11:47 | 52.35877 | 13.50778 | 157 ft | 12 kts | 25° |
| 2026-02-18 11:47 | 52.35942 | 13.50930 | 158 ft | 23 kts | 66° |
| 2026-02-18 11:47 | 52.36011 | 13.51201 | 158 ft | 24 kts | 69° |
| 2026-02-18 11:48 | 52.36041 | 13.51314 | 158 ft | 3 kts | 45° |
| 2026-02-18 11:48 | 52.36076 | 13.51324 | 158 ft | 6 kts | 349° |
| 2026-02-18 11:48 | 52.36097 | 13.51313 | 158 ft | 2 kts | 342° |
| 2026-02-18 11:48 | 52.36115 | 13.51303 | 158 ft | 4 kts | 341° |
| 2026-02-18 11:49 | 52.36120 | 13.51300 | 158 ft | 0 kts | 340° |
| 2026-02-18 11:49 | 52.36124 | 13.51298 | 158 ft | 0 kts | 340° |